Vidéos.

Vous avez récemment participé à un vol avec l’équipe Fly & Fun ? Retrouvez votre nom et prénom dans la liste juste en dessous pour télécharger votre vidéo avec votre mot de passe fourni par l’équipe !

METAR :

LFQA 111500Z AUTO 25007KT CAVOK 07/05 Q1008


vue en direct sur l'aérodrome
mentions légales politique de confidentialité
Cochet Concept
cx